createdAt,value
2018-08-31T00:00:54.763Z,13.50
2018-08-31T00:04:34.391Z,13.50
2018-08-31T00:07:14.843Z,13.40
2018-08-31T00:10:59.150Z,13.40
2018-08-31T00:13:27.723Z,13.40
2018-08-31T00:15:56.256Z,13.30
2018-08-31T00:18:24.675Z,13.30
2018-08-31T00:20:53.143Z,13.30
2018-08-31T00:23:36.385Z,13.30
2018-08-31T00:26:17.217Z,13.30
2018-08-31T00:29:44.783Z,13.40
2018-08-31T00:32:24.485Z,13.40
2018-08-31T00:36:08.176Z,13.30
2018-08-31T00:38:45.636Z,13.30
2018-08-31T00:43:29.114Z,13.30
2018-08-31T00:45:57.623Z,13.30
2018-08-31T00:48:26.057Z,13.30
2018-08-31T00:50:55.497Z,13.30
2018-08-31T00:53:23.913Z,13.30
2018-08-31T00:55:52.348Z,13.30
2018-08-31T00:58:20.832Z,13.30
2018-08-31T01:00:49.268Z,13.30
2018-08-31T01:03:17.740Z,13.30
2018-08-31T01:05:46.187Z,13.30
2018-08-31T01:08:14.658Z,13.30
2018-08-31T01:10:43.119Z,13.20
2018-08-31T01:13:11.551Z,13.20
2018-08-31T01:15:40.003Z,13.20
2018-08-31T01:18:08.452Z,13.20
2018-08-31T01:20:36.909Z,13.20
2018-08-31T01:23:05.585Z,13.20
2018-08-31T01:25:34.486Z,13.20
2018-08-31T01:28:03.572Z,13.20
2018-08-31T01:30:32.014Z,13.20
2018-08-31T01:33:00.509Z,13.20
2018-08-31T01:35:28.938Z,13.20
2018-08-31T01:37:57.465Z,13.20
2018-08-31T01:40:26.141Z,13.20
2018-08-31T01:42:54.633Z,13.20
2018-08-31T01:45:23.111Z,13.20
2018-08-31T01:47:51.609Z,13.20
2018-08-31T01:50:20.046Z,13.10
2018-08-31T01:52:48.504Z,13.10
2018-08-31T01:55:16.969Z,13.10
2018-08-31T01:57:45.474Z,13.10
2018-08-31T02:00:13.900Z,13.10
2018-08-31T02:02:42.385Z,13.10
2018-08-31T02:05:10.856Z,13.10
2018-08-31T02:07:39.323Z,13.10
2018-08-31T02:10:07.848Z,13.10
2018-08-31T02:12:36.325Z,13.10
2018-08-31T02:15:04.817Z,13.10
2018-08-31T02:17:33.327Z,13.10
2018-08-31T02:20:01.768Z,13.00
2018-08-31T02:22:30.355Z,13.10
2018-08-31T02:24:58.825Z,13.10
2018-08-31T02:27:27.460Z,13.10
2018-08-31T02:29:55.901Z,13.10
2018-08-31T02:32:24.872Z,13.10
2018-08-31T02:34:53.887Z,13.10
2018-08-31T02:37:22.928Z,13.10
2018-08-31T02:39:51.492Z,13.10
2018-08-31T02:42:19.981Z,13.10
2018-08-31T02:44:50.167Z,13.10
2018-08-31T02:47:18.613Z,13.10
2018-08-31T02:49:47.115Z,13.00
2018-08-31T02:52:15.580Z,13.00
2018-08-31T02:54:44.165Z,13.00
2018-08-31T02:57:12.615Z,13.00
2018-08-31T02:59:41.508Z,13.00
2018-08-31T03:02:10.078Z,13.00
2018-08-31T03:04:38.573Z,13.00
2018-08-31T03:07:07.300Z,13.00
2018-08-31T03:09:35.941Z,13.00
2018-08-31T03:12:04.555Z,13.00
2018-08-31T03:14:32.952Z,13.00
2018-08-31T03:17:01.420Z,13.00
2018-08-31T03:19:30.045Z,12.90
2018-08-31T03:22:05.140Z,13.00
2018-08-31T03:24:33.684Z,13.00
2018-08-31T03:27:02.363Z,12.90
2018-08-31T03:29:30.787Z,12.90
2018-08-31T03:31:59.267Z,12.90
2018-08-31T03:34:27.744Z,12.90
2018-08-31T03:36:56.395Z,12.90
2018-08-31T03:39:24.749Z,12.90
2018-08-31T03:41:53.213Z,12.90
2018-08-31T03:44:21.669Z,12.90
2018-08-31T03:46:50.245Z,12.90
2018-08-31T03:49:18.733Z,12.90
2018-08-31T03:51:47.179Z,12.90
2018-08-31T03:54:15.862Z,12.90
2018-08-31T03:56:44.372Z,12.90
2018-08-31T03:59:13.037Z,12.90
2018-08-31T04:01:41.747Z,13.00
2018-08-31T04:04:10.211Z,13.00
2018-08-31T04:06:38.875Z,13.00
2018-08-31T04:09:08.369Z,13.00
2018-08-31T04:11:36.784Z,13.00
2018-08-31T04:14:05.557Z,13.00
2018-08-31T04:16:34.102Z,13.00
2018-08-31T04:19:06.881Z,13.00
2018-08-31T04:21:36.197Z,13.00
2018-08-31T04:24:05.339Z,13.10
2018-08-31T04:26:34.445Z,13.10
2018-08-31T04:29:02.860Z,13.10
2018-08-31T04:31:31.416Z,13.10
2018-08-31T04:34:00.414Z,13.20
2018-08-31T04:36:29.229Z,13.20
2018-08-31T04:38:57.885Z,13.20
2018-08-31T04:41:26.731Z,13.20
2018-08-31T04:43:55.343Z,13.20
2018-08-31T04:46:24.127Z,13.20
2018-08-31T04:48:52.581Z,13.20
2018-08-31T04:51:21.052Z,13.20
2018-08-31T04:53:49.506Z,13.20
2018-08-31T04:56:19.452Z,13.20
2018-08-31T04:58:47.944Z,13.20
2018-08-31T05:01:16.476Z,13.30
2018-08-31T05:03:45.028Z,13.30
2018-08-31T05:06:13.471Z,13.30
2018-08-31T05:08:42.027Z,13.30
2018-08-31T05:11:10.507Z,13.30
2018-08-31T05:13:39.329Z,13.30
2018-08-31T05:16:07.963Z,13.40
2018-08-31T05:18:36.342Z,13.40
2018-08-31T05:21:05.118Z,13.40
2018-08-31T05:23:33.578Z,13.50
2018-08-31T05:26:02.328Z,13.60
2018-08-31T05:28:30.800Z,13.60
2018-08-31T05:30:59.278Z,13.60
2018-08-31T05:33:27.836Z,13.70
2018-08-31T05:35:56.319Z,13.80
2018-08-31T05:38:24.821Z,13.90
2018-08-31T05:40:53.276Z,13.90
2018-08-31T05:43:21.762Z,14.00
2018-08-31T05:45:50.180Z,14.10
2018-08-31T05:48:18.643Z,14.20
2018-08-31T05:50:47.079Z,14.30
2018-08-31T05:53:15.500Z,14.30
2018-08-31T05:55:43.994Z,14.50
2018-08-31T05:58:12.483Z,14.60
2018-08-31T06:00:40.991Z,14.70
2018-08-31T06:03:09.418Z,14.80
2018-08-31T06:05:37.908Z,14.90
2018-08-31T06:08:06.372Z,15.10
2018-08-31T06:10:34.895Z,15.20
2018-08-31T06:13:03.540Z,15.30
2018-08-31T06:15:32.091Z,15.50
2018-08-31T06:18:00.579Z,15.60
2018-08-31T06:20:29.248Z,15.70
2018-08-31T06:22:57.696Z,15.90
2018-08-31T06:25:26.454Z,16.00
2018-08-31T06:27:55.296Z,16.20
2018-08-31T06:30:24.048Z,16.40
2018-08-31T06:32:52.707Z,16.60
2018-08-31T06:35:21.248Z,16.80
2018-08-31T06:37:49.783Z,16.90
2018-08-31T06:40:18.414Z,17.00
2018-08-31T06:42:46.968Z,16.90
2018-08-31T06:45:15.908Z,16.90
2018-08-31T06:47:44.491Z,16.80
2018-08-31T06:50:13.009Z,16.70
2018-08-31T06:52:41.488Z,16.70
2018-08-31T06:55:10.162Z,16.80
2018-08-31T06:57:38.717Z,17.00
2018-08-31T07:00:08.024Z,17.10
2018-08-31T07:02:36.762Z,17.20
2018-08-31T07:05:05.809Z,17.40
2018-08-31T07:07:36.236Z,17.50
2018-08-31T07:10:05.013Z,17.80
2018-08-31T07:12:33.641Z,17.90
2018-08-31T07:15:02.455Z,18.00
2018-08-31T07:17:31.115Z,18.10
2018-08-31T07:19:59.570Z,18.20
2018-08-31T07:22:28.142Z,18.10
2018-08-31T07:24:56.732Z,18.00
2018-08-31T07:27:25.330Z,18.00
2018-08-31T07:29:53.866Z,18.10
2018-08-31T07:32:22.326Z,18.20
2018-08-31T07:34:50.891Z,18.30
2018-08-31T07:37:19.568Z,18.40
2018-08-31T07:39:48.378Z,18.60
2018-08-31T07:42:17.143Z,18.70
2018-08-31T07:44:45.680Z,18.70
2018-08-31T07:47:14.101Z,18.70
2018-08-31T07:49:42.859Z,18.70
2018-08-31T07:52:11.307Z,18.90
2018-08-31T07:54:40.178Z,19.10
2018-08-31T07:57:08.687Z,19.30
2018-08-31T07:59:37.296Z,19.50
2018-08-31T08:02:06.145Z,19.70
2018-08-31T08:04:34.585Z,19.90
2018-08-31T08:07:03.147Z,20.10
2018-08-31T08:09:31.754Z,20.20
2018-08-31T08:12:00.296Z,20.30
2018-08-31T08:14:28.920Z,20.30
2018-08-31T08:16:57.746Z,20.20
2018-08-31T08:19:26.428Z,20.30
2018-08-31T08:21:55.026Z,20.40
2018-08-31T08:24:23.485Z,20.70
2018-08-31T08:26:52.183Z,20.90
2018-08-31T08:29:20.694Z,21.40
2018-08-31T08:31:49.219Z,22.20
2018-08-31T08:34:17.683Z,23.10
2018-08-31T08:36:46.292Z,23.60
2018-08-31T08:39:14.926Z,24.30
2018-08-31T08:41:43.480Z,24.80
2018-08-31T08:44:12.611Z,25.50
2018-08-31T08:46:41.435Z,25.80
2018-08-31T08:49:09.989Z,26.20
2018-08-31T08:51:38.676Z,26.40
2018-08-31T08:54:07.185Z,26.60
2018-08-31T08:56:35.834Z,26.70
2018-08-31T08:59:04.493Z,26.70
2018-08-31T09:01:32.990Z,26.30
2018-08-31T09:04:01.434Z,25.40
2018-08-31T09:06:29.986Z,24.80
2018-08-31T09:08:58.407Z,24.60
2018-08-31T09:11:26.880Z,24.30
2018-08-31T09:16:37.121Z,23.70
2018-08-31T09:19:05.848Z,23.70
2018-08-31T09:21:34.427Z,24.30
2018-08-31T09:24:03.524Z,24.70
2018-08-31T09:26:32.064Z,25.00
2018-08-31T09:29:00.613Z,25.70
2018-08-31T09:31:29.181Z,26.10
2018-08-31T09:33:57.675Z,26.20
2018-08-31T09:36:26.220Z,26.80
2018-08-31T09:38:54.727Z,26.60
2018-08-31T09:41:23.904Z,26.00
2018-08-31T09:43:52.415Z,25.90
2018-08-31T09:46:20.786Z,26.40
2018-08-31T09:48:49.334Z,26.40
2018-08-31T09:51:17.867Z,26.60
2018-08-31T09:53:46.389Z,26.80
2018-08-31T09:56:14.864Z,26.80
2018-08-31T09:58:43.425Z,26.80
2018-08-31T10:01:17.132Z,27.30
2018-08-31T10:03:45.609Z,27.10
2018-08-31T10:06:14.070Z,26.40
2018-08-31T10:08:42.620Z,25.90
2018-08-31T10:11:11.074Z,25.40
2018-08-31T10:13:39.573Z,25.50
2018-08-31T10:16:08.152Z,25.10
2018-08-31T10:18:36.716Z,24.80
2018-08-31T10:21:05.689Z,24.60
2018-08-31T10:23:34.230Z,24.30
2018-08-31T10:28:28.998Z,24.00
2018-08-31T10:30:57.577Z,24.50
2018-08-31T10:33:26.120Z,24.40
2018-08-31T10:35:54.659Z,24.00
2018-08-31T10:38:23.172Z,24.20
2018-08-31T10:40:51.668Z,24.80
2018-08-31T10:43:20.323Z,25.70
2018-08-31T10:45:48.830Z,26.20
2018-08-31T10:48:17.279Z,26.20
2018-08-31T10:50:45.852Z,26.40
2018-08-31T10:53:14.428Z,26.90
2018-08-31T10:55:42.912Z,27.60
2018-08-31T10:58:11.424Z,28.00
2018-08-31T11:00:39.905Z,27.90
2018-08-31T11:03:08.567Z,27.50
2018-08-31T11:05:37.126Z,27.30
2018-08-31T11:08:05.720Z,26.90
2018-08-31T11:10:34.396Z,26.20
2018-08-31T11:13:02.941Z,25.80
2018-08-31T11:15:31.709Z,25.80
2018-08-31T11:18:00.316Z,25.40
2018-08-31T11:20:28.927Z,25.00
2018-08-31T11:22:57.561Z,24.60
2018-08-31T11:25:26.116Z,24.20
2018-08-31T11:27:54.690Z,24.30
2018-08-31T11:30:23.214Z,24.60
2018-08-31T11:32:51.884Z,24.80
2018-08-31T11:35:20.480Z,25.10
2018-08-31T11:37:49.008Z,25.20
2018-08-31T11:40:17.506Z,25.50
2018-08-31T11:42:46.087Z,25.60
2018-08-31T11:45:14.608Z,25.30
2018-08-31T11:47:43.215Z,24.80
2018-08-31T11:50:12.763Z,24.00
2018-08-31T11:52:41.432Z,23.30
2018-08-31T11:55:09.978Z,22.70
2018-08-31T11:57:38.479Z,22.70
2018-08-31T12:00:07.076Z,22.50
2018-08-31T12:02:35.827Z,22.30
2018-08-31T12:05:04.341Z,22.10
2018-08-31T12:07:32.873Z,22.40
2018-08-31T12:10:01.423Z,22.40
2018-08-31T12:12:29.981Z,22.80
2018-08-31T12:14:58.635Z,22.90
2018-08-31T12:17:27.144Z,22.60
2018-08-31T12:19:55.677Z,22.50
2018-08-31T12:22:24.109Z,22.20
2018-08-31T12:24:52.617Z,21.80
2018-08-31T12:27:21.275Z,21.30
2018-08-31T12:29:50.243Z,21.00
2018-08-31T12:32:18.863Z,21.00
2018-08-31T12:34:47.329Z,20.80
2018-08-31T12:37:15.849Z,20.80
2018-08-31T12:39:44.521Z,21.10
2018-08-31T12:42:13.064Z,21.30
2018-08-31T12:44:41.676Z,21.30
2018-08-31T12:47:10.303Z,21.30
2018-08-31T12:49:40.377Z,21.20
2018-08-31T12:52:09.188Z,21.30
2018-08-31T12:54:37.708Z,21.50
2018-08-31T12:57:06.557Z,21.60
2018-08-31T12:59:35.387Z,21.60
2018-08-31T13:02:04.673Z,21.50
2018-08-31T13:04:33.424Z,21.50
2018-08-31T13:07:02.451Z,21.50
2018-08-31T13:09:31.072Z,21.70
2018-08-31T13:11:59.826Z,21.80
2018-08-31T13:14:28.604Z,21.50
2018-08-31T13:16:57.379Z,21.50
2018-08-31T13:19:26.289Z,21.80
2018-08-31T13:21:55.046Z,22.10
2018-08-31T13:24:23.692Z,22.10
2018-08-31T13:26:52.329Z,22.20
2018-08-31T13:29:21.086Z,22.30
2018-08-31T13:31:49.933Z,22.50
2018-08-31T13:34:18.622Z,22.50
2018-08-31T13:36:47.203Z,22.50
2018-08-31T13:39:15.997Z,22.80
2018-08-31T13:41:44.782Z,22.70
2018-08-31T13:44:13.901Z,22.80
2018-08-31T13:46:42.589Z,23.00
2018-08-31T13:49:11.239Z,23.20
2018-08-31T13:51:39.905Z,23.30
2018-08-31T13:54:08.525Z,23.10
2018-08-31T13:56:37.169Z,23.10
2018-08-31T13:59:06.011Z,22.90
2018-08-31T14:01:34.540Z,22.60
2018-08-31T14:04:03.111Z,22.30
2018-08-31T14:06:31.621Z,22.00
2018-08-31T14:09:00.412Z,22.00
2018-08-31T14:11:29.183Z,22.10
2018-08-31T14:14:04.446Z,22.00
2018-08-31T14:16:35.409Z,21.80
2018-08-31T14:19:05.559Z,21.90
2018-08-31T14:21:34.341Z,22.00
2018-08-31T14:24:02.872Z,21.80
2018-08-31T14:26:31.965Z,21.80
2018-08-31T14:29:00.614Z,21.80
2018-08-31T14:31:29.212Z,21.70
2018-08-31T14:33:58.029Z,21.70
2018-08-31T14:36:26.708Z,21.80
2018-08-31T14:38:55.651Z,21.80
2018-08-31T14:41:24.351Z,21.50
2018-08-31T14:43:53.532Z,21.40
2018-08-31T14:46:22.436Z,21.40
2018-08-31T14:48:51.274Z,21.30
2018-08-31T14:51:20.021Z,21.10
2018-08-31T14:53:48.711Z,21.00
2018-08-31T14:56:17.759Z,21.10
2018-08-31T14:58:46.396Z,21.20
2018-08-31T15:01:14.978Z,21.30
2018-08-31T15:03:43.533Z,21.30
2018-08-31T15:06:12.154Z,21.20
2018-08-31T15:08:40.692Z,21.40
2018-08-31T15:11:09.394Z,21.50
2018-08-31T15:13:38.137Z,21.50
2018-08-31T15:16:08.432Z,21.60
2018-08-31T15:18:37.192Z,21.60
2018-08-31T15:21:06.003Z,21.60
2018-08-31T15:23:34.647Z,21.70
2018-08-31T15:26:03.094Z,21.70
2018-08-31T15:28:31.586Z,21.60
2018-08-31T15:31:00.140Z,21.50
2018-08-31T15:33:28.731Z,21.30
2018-08-31T15:35:57.354Z,21.20
2018-08-31T15:38:27.569Z,21.10
2018-08-31T15:40:56.394Z,21.00
2018-08-31T15:43:25.047Z,21.00
2018-08-31T15:45:53.655Z,21.00
2018-08-31T15:48:22.314Z,21.00
2018-08-31T15:50:57.662Z,21.10
2018-08-31T15:53:26.247Z,21.10
2018-08-31T15:55:55.136Z,21.00
2018-08-31T15:58:24.193Z,21.00
2018-08-31T16:00:52.756Z,21.00
2018-08-31T16:03:21.247Z,21.00
2018-08-31T16:05:49.781Z,21.00
2018-08-31T16:08:18.301Z,20.90
2018-08-31T16:10:46.864Z,20.90
2018-08-31T16:13:15.365Z,20.70
2018-08-31T16:15:43.902Z,20.70
2018-08-31T16:18:12.394Z,20.50
2018-08-31T16:20:40.959Z,20.50
2018-08-31T16:23:09.473Z,20.50
2018-08-31T16:25:37.928Z,20.50
2018-08-31T16:28:06.407Z,20.60
2018-08-31T16:30:35.220Z,20.50
2018-08-31T16:33:03.753Z,20.60
2018-08-31T16:35:32.234Z,20.60
2018-08-31T16:38:00.869Z,20.50
2018-08-31T16:40:29.381Z,20.50
2018-08-31T16:42:58.111Z,20.50
2018-08-31T16:45:26.671Z,20.40
2018-08-31T16:47:55.306Z,20.30
2018-08-31T16:50:23.923Z,20.30
2018-08-31T16:52:52.908Z,20.30
2018-08-31T16:55:21.844Z,20.30
2018-08-31T16:57:50.655Z,20.30
2018-08-31T17:00:19.230Z,20.20
2018-08-31T17:02:47.695Z,20.10
2018-08-31T17:05:16.188Z,20.10
2018-08-31T17:07:44.706Z,20.00
2018-08-31T17:10:13.175Z,20.00
2018-08-31T17:12:41.645Z,19.90
2018-08-31T17:15:10.409Z,19.90
2018-08-31T17:17:38.950Z,19.80
2018-08-31T17:20:07.813Z,19.80
2018-08-31T17:22:36.478Z,19.70
2018-08-31T17:25:05.920Z,19.60
2018-08-31T17:27:39.605Z,19.60
2018-08-31T17:30:13.932Z,19.50
2018-08-31T17:32:47.889Z,19.50
2018-08-31T17:35:21.681Z,19.50
2018-08-31T17:37:50.279Z,19.40
2018-08-31T17:40:18.763Z,19.30
2018-08-31T17:42:47.310Z,19.30
2018-08-31T17:45:20.125Z,19.10
2018-08-31T17:47:49.604Z,19.10
2018-08-31T17:50:18.218Z,19.00
2018-08-31T17:52:47.213Z,19.00
2018-08-31T17:55:15.894Z,18.90
2018-08-31T17:57:44.879Z,18.80
2018-08-31T18:00:13.479Z,18.70
2018-08-31T18:02:42.377Z,18.70
2018-08-31T18:05:10.855Z,18.60
2018-08-31T18:07:39.323Z,18.50
2018-08-31T18:10:07.967Z,18.40
2018-08-31T18:12:36.575Z,18.40
2018-08-31T18:15:05.374Z,18.30
2018-08-31T18:17:34.131Z,18.20
2018-08-31T18:20:02.641Z,18.10
2018-08-31T18:22:31.089Z,18.10
2018-08-31T18:24:59.821Z,18.00
2018-08-31T18:27:28.295Z,17.90
2018-08-31T18:29:56.832Z,17.80
2018-08-31T18:32:25.382Z,17.70
2018-08-31T18:34:53.841Z,17.60
2018-08-31T18:37:22.429Z,17.50
2018-08-31T18:39:51.164Z,17.40
2018-08-31T18:42:19.647Z,17.30
2018-08-31T18:44:48.481Z,17.30
2018-08-31T18:47:16.981Z,17.20
2018-08-31T18:49:46.205Z,17.10
2018-08-31T18:52:16.930Z,17.00
2018-08-31T18:54:45.577Z,17.00
2018-08-31T18:57:14.107Z,16.90
2018-08-31T18:59:42.617Z,16.90
2018-08-31T19:02:11.303Z,16.80
2018-08-31T19:04:39.819Z,16.80
2018-08-31T19:07:08.397Z,16.70
2018-08-31T19:09:36.894Z,16.70
2018-08-31T19:12:05.792Z,16.70
2018-08-31T19:14:34.350Z,16.70
2018-08-31T19:17:04.794Z,16.70
2018-08-31T19:19:33.315Z,16.70
2018-08-31T19:22:01.842Z,16.70
2018-08-31T19:24:30.585Z,16.60
2018-08-31T19:26:59.091Z,16.60
2018-08-31T19:29:28.552Z,16.50
2018-08-31T19:31:57.149Z,16.40
2018-08-31T19:34:25.678Z,16.30
2018-08-31T19:36:54.374Z,16.20
2018-08-31T19:39:23.306Z,16.20
2018-08-31T19:41:51.905Z,16.10
2018-08-31T19:44:20.567Z,16.00
2018-08-31T19:46:49.141Z,15.90
2018-08-31T19:49:17.888Z,15.80
2018-08-31T19:51:46.434Z,15.70
2018-08-31T19:54:15.158Z,15.70
2018-08-31T19:56:43.688Z,15.60
2018-08-31T19:59:12.258Z,15.60
2018-08-31T20:01:40.874Z,15.60
2018-08-31T20:04:09.603Z,15.50
2018-08-31T20:06:38.227Z,15.40
2018-08-31T20:09:08.607Z,15.40
2018-08-31T20:11:37.566Z,15.30
2018-08-31T20:14:06.565Z,15.30
2018-08-31T20:16:35.434Z,15.20
2018-08-31T20:19:04.006Z,15.20
2018-08-31T20:21:32.581Z,15.10
2018-08-31T20:24:01.247Z,15.00
2018-08-31T20:26:29.804Z,15.00
2018-08-31T20:28:58.355Z,14.90
2018-08-31T20:31:26.893Z,14.80
2018-08-31T20:33:55.390Z,14.80
2018-08-31T20:36:23.901Z,14.70
2018-08-31T20:38:52.519Z,14.80
2018-08-31T20:41:21.082Z,14.70
2018-08-31T20:43:49.566Z,14.60
2018-08-31T20:46:18.109Z,14.60
2018-08-31T20:48:46.640Z,14.60
2018-08-31T20:51:15.149Z,14.50
2018-08-31T20:53:43.783Z,14.50
2018-08-31T20:56:12.340Z,14.40
2018-08-31T20:58:41.117Z,14.40
2018-08-31T21:01:09.642Z,14.40
2018-08-31T21:03:38.251Z,14.30
2018-08-31T21:06:07.001Z,14.30
2018-08-31T21:08:35.739Z,14.20
2018-08-31T21:11:04.274Z,14.20
2018-08-31T21:13:32.880Z,14.20
2018-08-31T21:16:01.377Z,14.10
2018-08-31T21:18:29.946Z,14.10
2018-08-31T21:20:58.645Z,14.10
2018-08-31T21:23:27.195Z,14.00
2018-08-31T21:25:58.143Z,13.90
2018-08-31T21:28:26.804Z,13.80
2018-08-31T21:30:55.736Z,13.80
2018-08-31T21:33:24.225Z,13.80
2018-08-31T21:35:52.927Z,13.70
2018-08-31T21:38:21.484Z,13.60
2018-08-31T21:40:50.013Z,13.60
2018-08-31T21:43:18.770Z,13.60
2018-08-31T21:45:47.332Z,13.60
2018-08-31T21:48:15.990Z,13.50
2018-08-31T21:50:44.593Z,13.50
2018-08-31T21:53:13.086Z,13.50
2018-08-31T21:55:41.671Z,13.50
2018-08-31T21:58:10.382Z,13.50
2018-08-31T22:00:41.605Z,13.50
2018-08-31T22:03:10.998Z,13.40
2018-08-31T22:05:39.728Z,13.40
2018-08-31T22:08:08.376Z,13.40
2018-08-31T22:10:36.869Z,13.30
2018-08-31T22:13:05.516Z,13.30
2018-08-31T22:15:34.255Z,13.30
2018-08-31T22:18:02.766Z,13.20
2018-08-31T22:20:31.262Z,13.20
2018-08-31T22:22:59.816Z,13.20
2018-08-31T22:25:28.340Z,13.20
2018-08-31T22:27:56.988Z,13.20
2018-08-31T22:30:25.460Z,13.10
2018-08-31T22:32:53.929Z,13.10
2018-08-31T22:35:22.403Z,13.10
2018-08-31T22:37:50.921Z,13.10
2018-08-31T22:40:19.474Z,13.00
2018-08-31T22:42:48.093Z,13.00
2018-08-31T22:45:16.568Z,13.00
2018-08-31T22:47:45.664Z,13.00
2018-08-31T22:50:14.783Z,12.90
2018-08-31T22:52:43.334Z,12.90
2018-08-31T22:55:11.974Z,12.80
2018-08-31T22:57:40.755Z,12.80
2018-08-31T23:00:09.337Z,12.70
2018-08-31T23:02:38.198Z,12.70
2018-08-31T23:05:07.309Z,12.70
2018-08-31T23:07:41.361Z,12.70
2018-08-31T23:10:09.962Z,12.60
2018-08-31T23:12:38.570Z,12.60
2018-08-31T23:15:07.128Z,12.50
2018-08-31T23:17:35.783Z,12.50
2018-08-31T23:20:04.368Z,12.40
2018-08-31T23:22:32.982Z,12.40
2018-08-31T23:25:02.577Z,12.30
2018-08-31T23:27:31.165Z,12.20
2018-08-31T23:30:00.076Z,12.20
2018-08-31T23:32:29.016Z,12.10
2018-08-31T23:34:57.482Z,12.20
2018-08-31T23:37:26.169Z,12.10
2018-08-31T23:39:54.689Z,12.10
2018-08-31T23:42:23.502Z,12.10
2018-08-31T23:44:51.981Z,12.10
2018-08-31T23:47:20.449Z,12.00
2018-08-31T23:49:49.129Z,12.00
2018-08-31T23:52:17.827Z,12.00
2018-08-31T23:54:46.313Z,12.00
2018-08-31T23:57:14.805Z,12.00
2018-08-31T23:59:43.320Z,11.90
